createdAt,value
2019-05-19T00:00:16.246Z,81.70
2019-05-19T00:02:46.518Z,82.20
2019-05-19T00:05:16.993Z,82.50
2019-05-19T00:07:47.111Z,82.80
2019-05-19T00:10:17.382Z,82.60
2019-05-19T00:12:48.134Z,83.80
2019-05-19T00:15:18.475Z,83.70
2019-05-19T00:17:48.661Z,83.00
2019-05-19T00:20:20.041Z,82.80
2019-05-19T00:22:50.214Z,82.50
2019-05-19T00:25:20.419Z,82.40
2019-05-19T00:27:50.588Z,82.20
2019-05-19T00:30:21.018Z,81.70
2019-05-19T00:32:51.231Z,82.60
2019-05-19T00:35:22.348Z,83.00
2019-05-19T00:37:52.543Z,83.20
2019-05-19T00:40:22.693Z,83.10
2019-05-19T00:42:52.913Z,82.80
2019-05-19T00:45:22.932Z,82.90
2019-05-19T00:47:52.841Z,83.30
2019-05-19T00:50:23.021Z,83.40
2019-05-19T00:52:53.902Z,83.80
2019-05-19T00:55:25.056Z,83.40
2019-05-19T00:57:55.351Z,83.90
2019-05-19T01:00:25.504Z,83.80
2019-05-19T01:02:55.700Z,84.40
2019-05-19T01:05:25.675Z,84.00
2019-05-19T01:07:55.601Z,84.40
2019-05-19T01:10:25.700Z,84.10
2019-05-19T01:12:55.571Z,84.20
2019-05-19T01:15:25.818Z,84.50
2019-05-19T01:17:55.754Z,84.10
2019-05-19T01:20:26.166Z,83.50
2019-05-19T01:22:57.141Z,83.00
2019-05-19T01:25:27.250Z,82.60
2019-05-19T01:27:57.486Z,83.50
2019-05-19T01:30:27.717Z,83.10
2019-05-19T01:32:57.822Z,82.80
2019-05-19T01:35:28.621Z,83.00
2019-05-19T01:37:58.833Z,82.90
2019-05-19T01:40:28.729Z,83.60
2019-05-19T01:42:59.832Z,83.90
2019-05-19T01:45:29.719Z,84.80
2019-05-19T01:47:59.567Z,84.70
2019-05-19T01:50:29.552Z,85.10
2019-05-19T01:53:01.672Z,85.20
2019-05-19T01:55:31.837Z,84.90
2019-05-19T01:58:01.993Z,85.50
2019-05-19T02:00:32.924Z,85.10
2019-05-19T02:03:03.347Z,85.00
2019-05-19T02:05:33.511Z,85.70
2019-05-19T02:08:03.688Z,85.30
2019-05-19T02:10:33.696Z,85.20
2019-05-19T02:13:05.247Z,86.00
2019-05-19T02:15:35.324Z,86.60
2019-05-19T02:18:05.657Z,86.40
2019-05-19T02:20:35.831Z,86.40
2019-05-19T02:23:06.793Z,86.20
2019-05-19T02:25:37.108Z,86.40
2019-05-19T02:28:07.360Z,85.90
2019-05-19T02:30:37.424Z,86.20
2019-05-19T02:33:07.596Z,85.90
2019-05-19T02:35:37.523Z,85.80
2019-05-19T02:38:07.743Z,85.10
2019-05-19T02:40:40.534Z,84.30
2019-05-19T02:43:12.188Z,84.10
2019-05-19T02:45:42.676Z,84.90
2019-05-19T02:48:13.820Z,85.10
2019-05-19T02:50:52.142Z,85.10
2019-05-19T02:53:18.402Z,84.30
2019-05-19T02:55:49.386Z,84.20
2019-05-19T02:58:19.924Z,84.40
2019-05-19T03:00:49.800Z,84.50
2019-05-19T03:03:19.902Z,84.40
2019-05-19T03:05:50.072Z,84.90
2019-05-19T03:08:20.174Z,84.50
2019-05-19T03:10:50.528Z,84.90
2019-05-19T03:13:20.713Z,84.90
2019-05-19T03:15:50.887Z,84.70
2019-05-19T03:18:21.972Z,84.70
2019-05-19T03:21:08.171Z,84.60
2019-05-19T03:23:24.008Z,85.00
2019-05-19T03:25:53.872Z,86.00
2019-05-19T03:28:25.014Z,85.40
2019-05-19T03:30:57.885Z,86.10
2019-05-19T03:33:30.685Z,87.70
2019-05-19T03:36:00.162Z,88.40
2019-05-19T03:38:30.196Z,89.10
2019-05-19T03:41:00.326Z,90.00
2019-05-19T03:43:30.507Z,89.40
2019-05-19T03:46:00.732Z,89.20
2019-05-19T03:48:30.985Z,88.90
2019-05-19T03:51:01.158Z,88.90
2019-05-19T03:53:32.267Z,88.60
2019-05-19T03:56:02.475Z,88.50
2019-05-19T03:58:32.753Z,88.40
2019-05-19T04:01:02.883Z,89.00
2019-05-19T04:03:32.932Z,89.60
2019-05-19T04:06:03.122Z,90.00
2019-05-19T04:08:33.405Z,89.80
2019-05-19T04:11:03.304Z,89.30
2019-05-19T04:13:33.495Z,89.00
2019-05-19T04:16:03.833Z,89.80
2019-05-19T04:18:34.081Z,89.30
2019-05-19T04:21:04.383Z,89.60
2019-05-19T04:23:34.516Z,90.00
2019-05-19T04:26:04.743Z,89.80
2019-05-19T04:28:34.614Z,89.80
2019-05-19T04:31:04.779Z,88.90
2019-05-19T04:33:34.922Z,89.80
2019-05-19T04:36:05.248Z,89.60
2019-05-19T04:38:35.461Z,90.00
2019-05-19T04:41:05.584Z,89.80
2019-05-19T04:43:35.950Z,89.70
2019-05-19T04:46:06.092Z,89.20
2019-05-19T04:48:36.209Z,89.20
2019-05-19T04:51:06.459Z,89.00
2019-05-19T04:53:36.290Z,89.70
2019-05-19T04:56:06.175Z,90.00
2019-05-19T04:58:55.449Z,89.20
2019-05-19T05:01:25.633Z,89.10
2019-05-19T05:04:00.765Z,88.90
2019-05-19T05:06:30.905Z,89.40
2019-05-19T05:09:01.050Z,88.90
2019-05-19T05:11:31.475Z,88.70
2019-05-19T05:14:01.655Z,88.50
2019-05-19T05:16:32.811Z,88.60
2019-05-19T05:19:02.950Z,89.30
2019-05-19T05:21:32.815Z,88.70
2019-05-19T05:24:02.833Z,87.80
2019-05-19T05:26:32.788Z,88.00
2019-05-19T05:29:02.633Z,87.90
2019-05-19T05:31:33.527Z,87.80
2019-05-19T05:34:03.640Z,88.50
2019-05-19T05:36:33.741Z,88.60
2019-05-19T05:39:05.172Z,88.20
2019-05-19T05:41:35.189Z,88.00
2019-05-19T05:44:05.533Z,88.30
2019-05-19T05:46:36.723Z,88.80
2019-05-19T05:49:06.911Z,88.70
2019-05-19T05:51:37.071Z,88.50
2019-05-19T05:54:07.283Z,88.20
2019-05-19T05:56:37.174Z,88.40
2019-05-19T05:59:07.364Z,89.20
2019-05-19T06:01:37.635Z,89.70
2019-05-19T06:04:07.883Z,88.90
2019-05-19T06:06:38.066Z,88.40
2019-05-19T06:09:08.197Z,88.30
2019-05-19T06:11:38.332Z,87.90
2019-05-19T06:14:08.605Z,87.70
2019-05-19T06:16:38.837Z,87.40
2019-05-19T06:19:09.015Z,88.20
2019-05-19T06:21:38.891Z,87.70
2019-05-19T06:24:09.143Z,87.50
2019-05-19T06:26:39.328Z,88.20
2019-05-19T06:29:09.279Z,87.30
2019-05-19T06:31:39.448Z,87.50
2019-05-19T06:34:09.603Z,87.30
2019-05-19T06:36:39.706Z,86.80
2019-05-19T06:39:09.854Z,86.90
2019-05-19T06:41:40.078Z,87.30
2019-05-19T06:44:10.192Z,87.20
2019-05-19T06:46:40.339Z,87.70
2019-05-19T06:49:10.523Z,87.10
2019-05-19T06:51:41.285Z,87.30
2019-05-19T06:54:11.351Z,87.20
2019-05-19T06:56:42.813Z,87.20
2019-05-19T06:59:13.093Z,86.90
2019-05-19T07:01:44.009Z,86.70
2019-05-19T07:04:13.910Z,86.40
2019-05-19T07:06:44.635Z,86.00
2019-05-19T07:09:14.750Z,86.30
2019-05-19T07:11:44.864Z,85.40
2019-05-19T07:14:15.036Z,85.70
2019-05-19T07:16:44.902Z,85.00
2019-05-19T07:19:14.944Z,85.60
2019-05-19T07:21:45.126Z,85.50
2019-05-19T07:24:15.352Z,84.80
2019-05-19T07:26:45.352Z,85.00
2019-05-19T07:29:15.280Z,85.20
2019-05-19T07:31:45.416Z,84.10
2019-05-19T07:34:15.351Z,82.10
2019-05-19T07:36:45.279Z,82.80
2019-05-19T07:39:15.471Z,83.80
2019-05-19T07:41:45.407Z,81.00
2019-05-19T07:44:15.461Z,80.80
2019-05-19T07:46:45.309Z,79.10
2019-05-19T07:49:15.474Z,78.70
2019-05-19T07:51:45.400Z,78.80
2019-05-19T07:54:15.605Z,78.60
2019-05-19T07:56:45.911Z,77.90
2019-05-19T07:59:15.777Z,78.30
2019-05-19T08:01:45.846Z,77.20
2019-05-19T08:04:18.828Z,77.90
2019-05-19T08:06:49.986Z,77.00
2019-05-19T08:09:39.335Z,76.80
2019-05-19T08:12:11.894Z,77.10
2019-05-19T08:14:42.195Z,77.00
2019-05-19T08:17:12.310Z,76.50
2019-05-19T08:19:42.179Z,78.50
2019-05-19T08:22:12.495Z,76.40
2019-05-19T08:24:42.715Z,75.90
2019-05-19T08:27:12.844Z,76.10
2019-05-19T08:29:42.741Z,74.70
2019-05-19T08:32:12.658Z,73.60
2019-05-19T08:34:42.777Z,73.50
2019-05-19T08:37:12.997Z,72.20
2019-05-19T08:39:44.110Z,70.60
2019-05-19T08:42:14.341Z,73.30
2019-05-19T08:44:44.596Z,70.90
2019-05-19T08:47:14.827Z,69.40
2019-05-19T08:49:45.174Z,68.50
2019-05-19T08:52:15.386Z,68.90
2019-05-19T08:54:45.555Z,69.50
2019-05-19T08:57:15.916Z,67.90
2019-05-19T08:59:45.906Z,67.20
2019-05-19T09:02:16.140Z,65.00
2019-05-19T09:04:46.410Z,65.40
2019-05-19T09:07:16.664Z,65.00
2019-05-19T09:09:46.562Z,65.50
2019-05-19T09:12:16.749Z,65.70
2019-05-19T09:14:46.968Z,65.80
2019-05-19T09:17:17.243Z,66.10
2019-05-19T09:19:47.127Z,64.40
2019-05-19T09:22:17.305Z,63.90
2019-05-19T09:24:47.513Z,65.80
2019-05-19T09:27:17.576Z,67.90
2019-05-19T09:29:47.663Z,66.40
2019-05-19T09:32:17.581Z,67.10
2019-05-19T09:34:47.805Z,65.10
2019-05-19T09:37:18.001Z,65.70
2019-05-19T09:39:48.271Z,65.20
2019-05-19T09:42:18.551Z,66.10
2019-05-19T09:44:48.857Z,66.50
2019-05-19T09:47:18.839Z,68.10
2019-05-19T09:49:49.112Z,68.10
2019-05-19T09:52:20.144Z,66.10
2019-05-19T09:54:50.373Z,67.40
2019-05-19T09:57:20.274Z,66.50
2019-05-19T09:59:50.499Z,67.30
2019-05-19T10:02:20.754Z,67.40
2019-05-19T10:04:51.003Z,66.70
2019-05-19T10:07:20.963Z,65.70
2019-05-19T10:10:02.195Z,64.90
2019-05-19T10:12:33.840Z,66.20
2019-05-19T10:15:04.352Z,63.80
2019-05-19T10:17:34.685Z,63.30
2019-05-19T10:20:07.639Z,62.40
2019-05-19T10:22:37.881Z,59.00
2019-05-19T10:25:21.026Z,58.50
2019-05-19T10:27:41.208Z,57.80
2019-05-19T10:30:14.091Z,56.50
2019-05-19T10:32:44.376Z,53.30
2019-05-19T10:35:14.819Z,54.70
2019-05-19T10:37:45.024Z,55.30
2019-05-19T10:40:15.507Z,56.10
2019-05-19T10:42:45.777Z,53.90
2019-05-19T10:45:17.110Z,54.30
2019-05-19T10:47:47.434Z,53.90
2019-05-19T10:50:17.822Z,52.40
2019-05-19T10:52:48.147Z,51.30
2019-05-19T10:55:18.174Z,54.00
2019-05-19T10:57:48.386Z,53.70
2019-05-19T11:00:18.826Z,51.60
2019-05-19T11:02:48.738Z,53.10
2019-05-19T11:05:19.096Z,50.00
2019-05-19T11:07:49.013Z,50.80
2019-05-19T11:10:38.389Z,51.70
2019-05-19T11:13:08.745Z,51.60
2019-05-19T11:15:39.007Z,52.70
2019-05-19T11:18:08.996Z,52.20
2019-05-19T11:20:39.369Z,51.70
2019-05-19T11:23:09.783Z,50.90
2019-05-19T11:25:51.151Z,51.80
2019-05-19T11:28:12.272Z,50.50
2019-05-19T11:30:42.506Z,48.70
2019-05-19T11:33:12.870Z,48.50
2019-05-19T11:35:43.074Z,48.40
2019-05-19T11:38:12.960Z,47.90
2019-05-19T11:40:43.115Z,48.50
2019-05-19T11:43:16.322Z,47.60
2019-05-19T11:45:46.786Z,48.00
2019-05-19T11:48:16.827Z,46.50
2019-05-19T11:50:46.914Z,47.70
2019-05-19T11:53:18.179Z,48.10
2019-05-19T11:55:48.448Z,48.00
2019-05-19T11:58:18.379Z,50.00
2019-05-19T12:00:48.697Z,50.70
2019-05-19T12:03:20.103Z,50.90
2019-05-19T12:05:50.529Z,49.30
2019-05-19T12:08:21.005Z,49.20
2019-05-19T12:10:51.223Z,49.40
2019-05-19T12:13:21.429Z,50.10
2019-05-19T12:15:51.778Z,49.40
2019-05-19T12:18:21.751Z,48.90
2019-05-19T12:20:51.928Z,48.80
2019-05-19T12:23:22.208Z,49.90
2019-05-19T12:25:53.533Z,49.00
2019-05-19T12:28:23.832Z,50.00
2019-05-19T12:30:53.950Z,49.30
2019-05-19T12:33:25.229Z,48.20
2019-05-19T12:35:55.230Z,46.60
2019-05-19T12:38:25.216Z,47.20
2019-05-19T12:40:55.434Z,45.60
2019-05-19T12:43:25.801Z,45.50
2019-05-19T12:45:56.134Z,45.40
2019-05-19T12:48:26.391Z,44.50
2019-05-19T12:50:56.863Z,46.10
2019-05-19T12:53:27.046Z,43.90
2019-05-19T12:55:57.124Z,45.80
2019-05-19T12:58:27.245Z,46.10
2019-05-19T13:00:58.455Z,47.90
2019-05-19T13:03:28.656Z,48.10
2019-05-19T13:05:58.786Z,48.20
2019-05-19T13:08:29.038Z,47.90
2019-05-19T13:10:59.229Z,45.90
2019-05-19T13:13:29.457Z,46.50
2019-05-19T13:15:59.762Z,45.00
2019-05-19T13:18:30.088Z,44.20
2019-05-19T13:21:00.389Z,43.80
2019-05-19T13:23:31.243Z,44.60
2019-05-19T13:26:02.029Z,43.90
2019-05-19T13:28:31.962Z,41.20
2019-05-19T13:31:02.315Z,42.60
2019-05-19T13:33:32.635Z,42.10
2019-05-19T13:36:03.643Z,43.50
2019-05-19T13:38:36.945Z,43.90
2019-05-19T13:41:07.128Z,42.80
2019-05-19T13:43:39.124Z,43.50
2019-05-19T13:46:09.459Z,42.60
2019-05-19T13:48:39.832Z,44.20
2019-05-19T13:51:14.707Z,44.30
2019-05-19T13:53:45.075Z,43.70
2019-05-19T13:56:15.206Z,42.80
2019-05-19T13:58:46.742Z,42.30
2019-05-19T14:01:28.088Z,42.60
2019-05-19T14:03:52.547Z,43.80
2019-05-19T14:06:23.054Z,43.50
2019-05-19T14:08:53.493Z,42.80
2019-05-19T14:11:23.686Z,44.00
2019-05-19T14:13:54.471Z,43.60
2019-05-19T14:16:24.991Z,43.00
2019-05-19T14:18:55.289Z,42.50
2019-05-19T14:21:27.573Z,44.00
2019-05-19T14:23:58.196Z,45.40
2019-05-19T14:26:28.742Z,47.30
2019-05-19T14:28:59.070Z,46.90
2019-05-19T14:31:30.380Z,49.00
2019-05-19T14:34:01.265Z,47.60
2019-05-19T14:36:34.377Z,46.50
2019-05-19T14:39:06.316Z,44.60
2019-05-19T14:41:38.112Z,45.50
2019-05-19T14:44:12.539Z,46.30
2019-05-19T14:46:43.341Z,47.00
2019-05-19T14:49:13.644Z,47.60
2019-05-19T14:51:43.879Z,48.50
2019-05-19T14:54:14.095Z,48.60
2019-05-19T14:56:44.347Z,48.30
2019-05-19T14:59:15.145Z,46.60
2019-05-19T15:01:45.061Z,47.40
2019-05-19T15:04:15.417Z,46.80
2019-05-19T15:06:47.227Z,46.60
2019-05-19T15:09:17.414Z,46.90
2019-05-19T15:11:47.603Z,48.00
2019-05-19T15:14:17.986Z,46.50
2019-05-19T15:16:48.779Z,43.80
2019-05-19T15:19:22.455Z,45.80
2019-05-19T15:22:11.795Z,46.80
2019-05-19T15:24:41.853Z,48.20
2019-05-19T15:27:12.146Z,48.10
2019-05-19T15:29:44.774Z,48.20
2019-05-19T15:32:14.956Z,47.90
2019-05-19T15:34:45.203Z,49.30
2019-05-19T15:37:15.312Z,50.60
2019-05-19T15:39:45.194Z,50.80
2019-05-19T15:42:15.314Z,52.60
2019-05-19T15:44:45.501Z,52.90
2019-05-19T15:47:15.642Z,52.20
2019-05-19T15:49:47.595Z,52.10
2019-05-19T15:52:17.827Z,52.10
2019-05-19T15:54:48.202Z,52.90
2019-05-19T15:57:20.156Z,53.80
2019-05-19T15:59:50.502Z,54.80
2019-05-19T16:02:20.684Z,55.50
2019-05-19T16:04:51.802Z,56.30
2019-05-19T16:07:22.022Z,57.00
2019-05-19T16:09:52.323Z,57.50
2019-05-19T16:12:54.022Z,58.40
2019-05-19T16:15:26.086Z,58.10
2019-05-19T16:17:56.555Z,58.70
2019-05-19T16:20:27.215Z,59.40
2019-05-19T16:22:57.761Z,59.20
2019-05-19T16:25:28.277Z,60.40
2019-05-19T16:27:58.601Z,61.40
2019-05-19T16:30:29.057Z,59.70
2019-05-19T16:32:59.587Z,60.20
2019-05-19T16:35:30.702Z,60.30
2019-05-19T16:38:01.203Z,59.70
2019-05-19T16:40:31.535Z,59.60
2019-05-19T16:43:03.170Z,60.40
2019-05-19T16:45:33.851Z,60.60
2019-05-19T16:48:03.876Z,60.10
2019-05-19T16:50:34.330Z,59.90
2019-05-19T16:53:07.616Z,59.80
2019-05-19T16:55:38.993Z,59.70
2019-05-19T16:58:20.613Z,60.00
2019-05-19T17:00:41.272Z,60.80
2019-05-19T17:03:11.785Z,61.10
2019-05-19T17:05:41.667Z,61.20
2019-05-19T17:08:11.707Z,61.50
2019-05-19T17:10:41.705Z,61.70
2019-05-19T17:13:13.927Z,62.30
2019-05-19T17:15:44.002Z,62.50
2019-05-19T17:18:14.138Z,62.60
2019-05-19T17:20:44.372Z,62.60
2019-05-19T17:23:14.918Z,62.70
2019-05-19T17:25:45.043Z,62.40
2019-05-19T17:28:15.343Z,62.80
2019-05-19T17:30:45.342Z,63.30
2019-05-19T17:33:15.660Z,63.10
2019-05-19T17:35:54.091Z,63.30
2019-05-19T17:38:24.177Z,63.20
2019-05-19T17:40:54.404Z,62.60
2019-05-19T17:43:24.622Z,62.40
2019-05-19T17:45:54.621Z,62.10
2019-05-19T17:48:26.891Z,62.80
2019-05-19T17:50:56.901Z,61.80
2019-05-19T17:53:27.175Z,61.90
2019-05-19T17:55:58.093Z,61.50
2019-05-19T17:58:30.419Z,62.10
2019-05-19T18:01:00.567Z,61.90
2019-05-19T18:03:31.302Z,62.00
2019-05-19T18:06:01.268Z,62.60
2019-05-19T18:08:31.175Z,62.50
2019-05-19T18:11:01.451Z,62.90
2019-05-19T18:13:32.672Z,63.10
2019-05-19T18:16:11.678Z,62.80
2019-05-19T18:18:42.475Z,63.00
2019-05-19T18:21:12.765Z,63.10
2019-05-19T18:23:43.068Z,62.90
2019-05-19T18:26:13.177Z,63.10
2019-05-19T18:28:43.156Z,62.90
2019-05-19T18:31:13.401Z,63.00
2019-05-19T18:33:43.696Z,63.20
2019-05-19T18:36:13.799Z,63.50
2019-05-19T18:38:44.168Z,64.00
2019-05-19T18:41:14.541Z,64.70
2019-05-19T18:43:47.445Z,64.80
2019-05-19T18:46:17.779Z,65.10
2019-05-19T18:48:48.073Z,65.30
2019-05-19T18:51:18.522Z,65.70
2019-05-19T18:53:51.945Z,65.80
2019-05-19T18:56:22.160Z,66.10
2019-05-19T18:58:52.453Z,66.60
2019-05-19T19:01:22.845Z,66.70
2019-05-19T19:03:52.884Z,67.00
2019-05-19T19:06:23.800Z,67.40
2019-05-19T19:08:55.484Z,67.80
2019-05-19T19:11:27.375Z,67.80
2019-05-19T19:13:57.751Z,68.20
2019-05-19T19:16:27.715Z,68.40
2019-05-19T19:18:59.989Z,68.50
2019-05-19T19:21:31.567Z,68.50
2019-05-19T19:24:04.031Z,69.10
2019-05-19T19:26:35.877Z,69.10
2019-05-19T19:29:06.548Z,69.50
2019-05-19T19:31:48.030Z,69.70
2019-05-19T19:34:12.760Z,69.80
2019-05-19T19:36:44.662Z,69.70
2019-05-19T19:39:15.569Z,69.90
2019-05-19T19:41:49.718Z,70.10
2019-05-19T19:44:20.091Z,70.10
2019-05-19T19:46:53.927Z,70.20
2019-05-19T19:49:25.539Z,70.20
2019-05-19T19:51:57.527Z,70.50
2019-05-19T19:54:27.870Z,70.60
2019-05-19T19:57:00.423Z,70.60
2019-05-19T19:59:30.251Z,70.70
2019-05-19T20:02:00.202Z,70.70
2019-05-19T20:04:30.498Z,71.00
2019-05-19T20:07:00.771Z,71.00
2019-05-19T20:09:30.797Z,71.10
2019-05-19T20:12:01.013Z,71.20
2019-05-19T20:14:31.342Z,71.20
2019-05-19T20:17:01.622Z,71.40
2019-05-19T20:19:32.145Z,71.30
2019-05-19T20:22:02.080Z,71.50
2019-05-19T20:24:32.368Z,71.40
2019-05-19T20:27:02.586Z,71.40
2019-05-19T20:29:32.925Z,71.60
2019-05-19T20:32:03.155Z,71.50
2019-05-19T20:34:33.382Z,71.60
2019-05-19T20:37:03.510Z,71.50
2019-05-19T20:39:37.612Z,71.40
2019-05-19T20:42:27.343Z,70.90
2019-05-19T20:45:01.063Z,70.90
2019-05-19T20:47:31.434Z,70.60
2019-05-19T20:50:01.712Z,70.40
2019-05-19T20:52:33.210Z,70.90
2019-05-19T20:55:03.601Z,70.40
2019-05-19T20:57:33.732Z,71.00
2019-05-19T21:00:05.713Z,70.80
2019-05-19T21:02:36.190Z,70.90
2019-05-19T21:05:06.465Z,71.00
2019-05-19T21:07:36.545Z,71.00
2019-05-19T21:10:07.718Z,70.80
2019-05-19T21:12:37.956Z,70.50
2019-05-19T21:15:08.333Z,70.50
2019-05-19T21:17:38.288Z,70.50
2019-05-19T21:20:08.470Z,70.50
2019-05-19T21:22:39.543Z,70.70
2019-05-19T21:25:09.921Z,70.80
2019-05-19T21:27:41.098Z,70.80
2019-05-19T21:30:11.422Z,70.70
2019-05-19T21:32:41.559Z,70.60
2019-05-19T21:35:11.632Z,70.90
2019-05-19T21:37:41.462Z,71.10
2019-05-19T21:40:11.915Z,71.10
2019-05-19T21:42:42.156Z,71.60
2019-05-19T21:45:12.677Z,71.70
2019-05-19T21:47:42.956Z,72.00
2019-05-19T21:50:12.862Z,72.20
2019-05-19T21:52:43.182Z,72.20
2019-05-19T21:55:13.592Z,72.10
2019-05-19T21:57:43.512Z,72.20
2019-05-19T22:00:14.327Z,72.20
2019-05-19T22:02:46.228Z,72.40
2019-05-19T22:05:16.615Z,72.20
2019-05-19T22:07:50.893Z,72.20
2019-05-19T22:10:21.175Z,72.10
2019-05-19T22:12:51.466Z,72.20
2019-05-19T22:15:21.644Z,72.30
2019-05-19T22:17:51.882Z,72.40
2019-05-19T22:20:23.217Z,72.40
2019-05-19T22:22:53.100Z,73.20
2019-05-19T22:25:23.277Z,73.60
2019-05-19T22:27:53.523Z,73.90
2019-05-19T22:30:23.520Z,74.20
2019-05-19T22:32:53.742Z,74.50
2019-05-19T22:35:24.069Z,74.50
2019-05-19T22:37:54.250Z,74.50
2019-05-19T22:40:24.518Z,75.00
2019-05-19T22:42:54.504Z,75.30
2019-05-19T22:45:24.401Z,75.50
2019-05-19T22:47:54.619Z,75.80
2019-05-19T22:50:24.628Z,75.60
2019-05-19T22:52:54.612Z,76.00
2019-05-19T22:55:24.591Z,76.30
2019-05-19T22:57:54.807Z,76.20
2019-05-19T23:00:26.336Z,76.80
2019-05-19T23:02:56.522Z,76.40
2019-05-19T23:05:26.789Z,76.50
2019-05-19T23:07:56.927Z,76.20
2019-05-19T23:10:28.190Z,76.90
2019-05-19T23:12:58.511Z,76.80
2019-05-19T23:15:28.502Z,77.10
2019-05-19T23:17:58.718Z,77.10
2019-05-19T23:20:28.730Z,76.80
2019-05-19T23:22:58.936Z,76.70
2019-05-19T23:25:30.147Z,77.20
2019-05-19T23:28:00.299Z,77.10
2019-05-19T23:30:30.471Z,76.50
2019-05-19T23:33:00.274Z,76.30
2019-05-19T23:35:30.635Z,76.30
2019-05-19T23:38:00.619Z,76.10
2019-05-19T23:40:30.552Z,75.70
2019-05-19T23:43:00.361Z,75.40
2019-05-19T23:45:30.466Z,75.60
2019-05-19T23:48:00.608Z,76.00
2019-05-19T23:50:30.826Z,75.70
2019-05-19T23:53:01.027Z,75.40
2019-05-19T23:55:31.330Z,75.20
2019-05-19T23:58:01.240Z,74.80
